createdAt,value
2022-08-05T00:00:23.242Z,977.60
2022-08-05T00:01:28.147Z,977.58
2022-08-05T00:02:23.301Z,977.55
2022-08-05T00:03:23.105Z,977.57
2022-08-05T00:04:22.947Z,977.59
2022-08-05T00:06:03.069Z,977.58
2022-08-05T00:06:32.280Z,977.59
2022-08-05T00:07:32.093Z,977.57
2022-08-05T00:08:34.900Z,977.60
2022-08-05T00:09:22.861Z,977.60
2022-08-05T00:10:22.930Z,977.66
2022-08-05T00:11:30.328Z,977.64
2022-08-05T00:12:23.262Z,977.60
2022-08-05T00:13:38.800Z,977.61
2022-08-05T00:14:27.473Z,977.60
2022-08-05T00:15:57.582Z,977.60
2022-08-05T00:16:35.467Z,977.58
2022-08-05T00:17:22.782Z,977.54
2022-08-05T00:18:22.914Z,977.57
2022-08-05T00:19:24.784Z,977.59
2022-08-05T00:20:22.941Z,977.63
2022-08-05T00:21:22.764Z,977.56
2022-08-05T00:22:22.936Z,977.61
2022-08-05T00:23:44.301Z,977.56
2022-08-05T00:24:24.738Z,977.53
2022-08-05T00:25:22.767Z,977.55
2022-08-05T00:26:22.693Z,977.52
2022-08-05T00:27:22.930Z,977.49
2022-08-05T00:28:29.731Z,977.48
2022-08-05T00:29:25.569Z,977.46
2022-08-05T00:30:29.262Z,977.41
2022-08-05T00:31:53.675Z,977.43
2022-08-05T00:32:22.561Z,977.45
2022-08-05T00:34:56.730Z,977.43
2022-08-05T00:35:12.201Z,977.46
2022-08-05T00:35:22.501Z,977.44
2022-08-05T00:37:12.029Z,977.45
2022-08-05T00:37:22.496Z,977.47
2022-08-05T00:38:33.779Z,977.45
2022-08-05T00:39:22.480Z,977.34
2022-08-05T00:40:26.931Z,977.39
2022-08-05T00:41:22.467Z,977.43
2022-08-05T00:42:32.158Z,977.39
2022-08-05T00:43:22.466Z,977.37
2022-08-05T00:44:23.295Z,977.38
2022-08-05T00:45:28.107Z,977.38
2022-08-05T00:46:36.918Z,977.35
2022-08-05T00:47:22.510Z,977.37
2022-08-05T00:48:27.647Z,977.38
2022-08-05T00:49:22.456Z,977.35
2022-08-05T00:50:22.310Z,977.38
2022-08-05T00:51:50.443Z,977.37
2022-08-05T00:52:28.776Z,977.35
2022-08-05T00:54:00.153Z,977.36
2022-08-05T00:54:22.301Z,977.35
2022-08-05T00:55:22.221Z,977.34
2022-08-05T00:56:22.738Z,977.28
2022-08-05T00:57:22.491Z,977.29
2022-08-05T00:58:22.354Z,977.35
2022-08-05T00:59:22.151Z,977.33
2022-08-05T01:00:22.306Z,977.33
2022-08-05T01:01:24.756Z,977.30
2022-08-05T01:02:22.126Z,977.29
2022-08-05T01:03:22.552Z,977.26
2022-08-05T01:04:26.856Z,977.28
2022-08-05T01:05:22.126Z,977.26
2022-08-05T01:06:22.058Z,977.31
2022-08-05T01:07:22.127Z,977.27
2022-08-05T01:08:42.323Z,977.29
2022-08-05T01:09:22.034Z,977.30
2022-08-05T01:10:22.103Z,977.29
2022-08-05T01:11:33.609Z,977.26
2022-08-05T01:12:21.972Z,977.29
2022-08-05T01:13:22.388Z,977.25
2022-08-05T01:14:27.971Z,977.29
2022-08-05T01:15:35.326Z,977.29
2022-08-05T01:16:23.014Z,977.26
2022-08-05T01:17:22.450Z,977.27
2022-08-05T01:18:21.966Z,977.24
2022-08-05T01:19:30.100Z,977.22
2022-08-05T01:20:22.387Z,977.22
2022-08-05T01:21:22.831Z,977.23
2022-08-05T01:22:24.382Z,977.21
2022-08-05T01:23:22.760Z,977.22
2022-08-05T01:24:22.078Z,977.23
2022-08-05T01:25:21.796Z,977.22
2022-08-05T01:26:21.766Z,977.21
2022-08-05T01:27:22.115Z,977.21
2022-08-05T01:28:21.981Z,977.19
2022-08-05T01:29:22.952Z,977.22
2022-08-05T01:30:34.332Z,977.22
2022-08-05T01:31:21.813Z,977.19
2022-08-05T01:32:21.702Z,977.13
2022-08-05T01:33:21.812Z,977.15
2022-08-05T01:34:21.964Z,977.18
2022-08-05T01:35:52.173Z,977.15
2022-08-05T01:36:21.641Z,977.14
2022-08-05T01:37:25.213Z,977.16
2022-08-05T01:38:27.266Z,977.17
2022-08-05T01:39:46.196Z,977.20
2022-08-05T01:40:21.607Z,977.19
2022-08-05T01:41:22.083Z,977.13
2022-08-05T01:42:21.557Z,977.17
2022-08-05T01:43:21.908Z,977.16
2022-08-05T01:44:21.667Z,977.14
2022-08-05T01:45:21.516Z,977.14
2022-08-05T01:46:42.962Z,977.14
2022-08-05T01:47:21.830Z,977.07
2022-08-05T01:48:21.467Z,977.09
2022-08-05T01:49:24.253Z,977.04
2022-08-05T01:50:28.596Z,977.09
2022-08-05T01:51:21.442Z,977.06
2022-08-05T01:52:21.492Z,977.09
2022-08-05T01:53:55.053Z,977.06
2022-08-05T01:54:25.515Z,977.04
2022-08-05T01:55:21.502Z,977.06
2022-08-05T01:58:12.462Z,977.03
2022-08-05T01:58:41.000Z,977.03
2022-08-05T01:58:50.028Z,977.05
2022-08-05T01:59:30.534Z,977.03
2022-08-05T02:00:31.083Z,977.02
2022-08-05T02:01:30.192Z,977.04
2022-08-05T02:02:30.098Z,977.05
2022-08-05T02:03:31.943Z,977.05
2022-08-05T02:04:30.176Z,977.05
2022-08-05T02:05:30.151Z,977.01
2022-08-05T02:06:37.236Z,977.07
2022-08-05T02:07:30.389Z,977.00
2022-08-05T02:08:31.609Z,977.04
2022-08-05T02:09:30.141Z,977.05
2022-08-05T02:10:29.964Z,977.01
2022-08-05T02:11:33.099Z,977.03
2022-08-05T02:12:32.865Z,977.04
2022-08-05T02:13:36.526Z,976.99
2022-08-05T02:14:31.841Z,977.03
2022-08-05T02:15:33.187Z,977.06
2022-08-05T02:16:29.741Z,977.07
2022-08-05T02:18:32.055Z,977.03
2022-08-05T02:18:41.951Z,977.06
2022-08-05T02:19:34.479Z,977.02
2022-08-05T02:20:29.718Z,977.01
2022-08-05T02:21:30.424Z,976.99
2022-08-05T02:22:29.711Z,977.02
2022-08-05T02:23:29.676Z,977.02
2022-08-05T02:24:29.715Z,977.02
2022-08-05T02:25:33.296Z,977.06
2022-08-05T02:26:29.666Z,977.11
2022-08-05T02:27:29.855Z,977.14
2022-08-05T02:28:32.160Z,977.13
2022-08-05T02:29:58.785Z,977.10
2022-08-05T02:30:29.986Z,977.15
2022-08-05T02:31:34.945Z,977.18
2022-08-05T02:32:31.368Z,977.14
2022-08-05T02:33:38.215Z,977.22
2022-08-05T02:34:29.662Z,977.22
2022-08-05T02:35:33.334Z,977.19
2022-08-05T02:36:31.541Z,977.20
2022-08-05T02:37:29.483Z,977.19
2022-08-05T02:38:35.226Z,977.13
2022-08-05T02:39:29.567Z,977.15
2022-08-05T02:40:29.456Z,977.16
2022-08-05T02:41:43.051Z,977.13
2022-08-05T02:42:34.322Z,977.15
2022-08-05T02:43:29.507Z,977.16
2022-08-05T02:44:29.397Z,977.12
2022-08-05T02:45:52.346Z,977.15
2022-08-05T02:46:29.376Z,977.12
2022-08-05T02:48:06.260Z,977.18
2022-08-05T02:48:29.944Z,977.09
2022-08-05T02:49:36.801Z,977.11
2022-08-05T02:50:29.324Z,977.13
2022-08-05T02:52:03.703Z,977.04
2022-08-05T02:52:30.862Z,977.12
2022-08-05T02:53:29.284Z,977.02
2022-08-05T02:54:36.431Z,977.07
2022-08-05T02:55:53.940Z,977.08
2022-08-05T02:56:29.320Z,977.01
2022-08-05T02:58:10.566Z,977.03
2022-08-05T02:58:30.364Z,977.06
2022-08-05T02:59:29.295Z,977.08
2022-08-05T03:00:29.346Z,977.06
2022-08-05T03:01:29.201Z,977.05
2022-08-05T03:02:29.175Z,977.04
2022-08-05T03:03:34.151Z,977.07
2022-08-05T03:04:29.327Z,977.03
2022-08-05T03:06:55.041Z,976.97
2022-08-05T03:07:04.196Z,977.04
2022-08-05T03:07:59.413Z,977.00
2022-08-05T03:08:29.782Z,977.03
2022-08-05T03:09:37.655Z,977.01
2022-08-05T03:10:29.063Z,976.99
2022-08-05T03:11:54.713Z,976.95
2022-08-05T03:12:29.022Z,976.96
2022-08-05T03:13:51.028Z,976.99
2022-08-05T03:14:29.070Z,976.95
2022-08-05T03:15:29.181Z,976.98
2022-08-05T03:16:29.004Z,976.97
2022-08-05T03:17:29.165Z,976.95
2022-08-05T03:18:30.068Z,976.99
2022-08-05T03:19:34.637Z,976.98
2022-08-05T03:20:29.076Z,977.00
2022-08-05T03:21:29.033Z,976.99
2022-08-05T03:22:32.162Z,977.00
2022-08-05T03:23:28.881Z,977.02
2022-08-05T03:24:30.113Z,977.01
2022-08-05T03:25:34.137Z,976.97
2022-08-05T03:26:31.420Z,976.94
2022-08-05T03:27:29.563Z,976.99
2022-08-05T03:28:28.820Z,976.96
2022-08-05T03:29:45.854Z,976.95
2022-08-05T03:30:33.815Z,976.93
2022-08-05T03:31:56.178Z,976.90
2022-08-05T03:32:30.969Z,976.92
2022-08-05T03:33:32.177Z,976.92
2022-08-05T03:34:29.002Z,976.97
2022-08-05T03:35:28.728Z,976.94
2022-08-05T03:36:30.578Z,976.95
2022-08-05T03:37:28.750Z,976.91
2022-08-05T03:38:33.313Z,976.90
2022-08-05T03:39:28.743Z,976.93
2022-08-05T03:40:31.852Z,976.87
2022-08-05T03:41:33.200Z,976.92
2022-08-05T03:42:29.128Z,976.89
2022-08-05T03:44:09.571Z,976.92
2022-08-05T03:44:29.037Z,976.93
2022-08-05T03:45:28.591Z,976.94
2022-08-05T03:46:29.926Z,976.97
2022-08-05T03:47:35.277Z,976.94
2022-08-05T03:48:29.248Z,976.97
2022-08-05T03:49:31.240Z,976.95
2022-08-05T03:50:28.500Z,977.01
2022-08-05T03:52:35.103Z,976.99
2022-08-05T03:55:00.349Z,976.97
2022-08-05T03:56:17.910Z,976.96
2022-08-05T03:56:34.808Z,976.95
2022-08-05T03:57:19.737Z,976.99
2022-08-05T03:58:19.747Z,977.00
2022-08-05T03:59:20.495Z,977.03
2022-08-05T04:00:19.730Z,977.00
2022-08-05T04:01:20.725Z,976.91
2022-08-05T04:02:37.764Z,976.96
2022-08-05T04:03:26.695Z,977.00
2022-08-05T04:04:21.357Z,976.98
2022-08-05T04:05:19.616Z,977.01
2022-08-05T04:06:19.586Z,977.03
2022-08-05T04:07:19.620Z,977.03
2022-08-05T04:08:34.736Z,976.98
2022-08-05T04:09:20.317Z,977.04
2022-08-05T04:10:19.632Z,977.05
2022-08-05T04:11:19.562Z,977.07
2022-08-05T04:12:24.409Z,977.05
2022-08-05T04:13:19.561Z,976.98
2022-08-05T04:14:19.721Z,976.98
2022-08-05T04:15:19.580Z,977.02
2022-08-05T04:16:25.445Z,977.00
2022-08-05T04:17:19.637Z,977.01
2022-08-05T04:18:22.361Z,977.06
2022-08-05T04:19:19.557Z,977.02
2022-08-05T04:20:19.415Z,977.05
2022-08-05T04:22:05.061Z,977.03
2022-08-05T04:22:20.469Z,977.02
2022-08-05T04:23:19.626Z,977.02
2022-08-05T04:24:22.722Z,977.02
2022-08-05T04:25:19.556Z,977.03
2022-08-05T04:26:19.349Z,976.99
2022-08-05T04:27:19.323Z,977.02
2022-08-05T04:28:19.446Z,977.02
2022-08-05T04:29:19.818Z,977.02
2022-08-05T04:30:19.402Z,976.99
2022-08-05T04:31:19.259Z,976.95
2022-08-05T04:32:20.139Z,976.92
2022-08-05T04:33:20.506Z,976.98
2022-08-05T04:34:32.914Z,976.93
2022-08-05T04:35:19.541Z,976.93
2022-08-05T04:36:49.543Z,976.95
2022-08-05T04:37:19.231Z,976.97
2022-08-05T04:38:19.408Z,976.92
2022-08-05T04:39:19.365Z,977.00
2022-08-05T04:40:19.792Z,977.00
2022-08-05T04:41:19.269Z,977.03
2022-08-05T04:42:19.395Z,977.04
2022-08-05T04:43:21.894Z,977.05
2022-08-05T04:44:28.968Z,977.04
2022-08-05T04:45:22.978Z,977.05
2022-08-05T04:46:27.966Z,976.99
2022-08-05T04:47:20.233Z,977.06
2022-08-05T04:48:27.216Z,977.08
2022-08-05T04:49:19.231Z,977.07
2022-08-05T04:50:37.278Z,977.08
2022-08-05T04:51:19.240Z,977.09
2022-08-05T04:52:18.971Z,977.10
2022-08-05T04:53:19.244Z,977.09
2022-08-05T04:54:18.941Z,977.09
2022-08-05T04:55:22.347Z,977.06
2022-08-05T04:56:34.407Z,977.07
2022-08-05T04:57:18.919Z,977.13
2022-08-05T04:58:21.585Z,977.15
2022-08-05T04:59:24.005Z,977.17
2022-08-05T05:00:19.146Z,977.16
2022-08-05T05:02:08.159Z,977.15
2022-08-05T05:02:43.279Z,977.10
2022-08-05T05:03:18.916Z,977.14
2022-08-05T05:04:18.835Z,977.16
2022-08-05T05:05:28.335Z,977.23
2022-08-05T05:06:40.534Z,977.23
2022-08-05T05:07:23.912Z,977.25
2022-08-05T05:08:26.605Z,977.30
2022-08-05T05:09:18.750Z,977.29
2022-08-05T05:10:18.763Z,977.29
2022-08-05T05:11:18.802Z,977.27
2022-08-05T05:12:18.771Z,977.23
2022-08-05T05:13:18.691Z,977.30
2022-08-05T05:14:18.781Z,977.33
2022-08-05T05:15:57.417Z,977.28
2022-08-05T05:16:19.757Z,977.36
2022-08-05T05:17:23.253Z,977.36
2022-08-05T05:18:28.663Z,977.40
2022-08-05T05:19:23.666Z,977.41
2022-08-05T05:20:18.756Z,977.44
2022-08-05T05:21:18.601Z,977.40
2022-08-05T05:22:23.818Z,977.46
2022-08-05T05:23:19.811Z,977.47
2022-08-05T05:24:18.778Z,977.47
2022-08-05T05:25:18.612Z,977.44
2022-08-05T05:26:18.760Z,977.47
2022-08-05T05:27:18.611Z,977.48
2022-08-05T05:28:18.570Z,977.48
2022-08-05T05:29:18.613Z,977.50
2022-08-05T05:30:30.942Z,977.50
2022-08-05T05:31:18.626Z,977.52
2022-08-05T05:32:18.445Z,977.52
2022-08-05T05:33:23.286Z,977.56
2022-08-05T05:34:26.597Z,977.55
2022-08-05T05:35:19.837Z,977.60
2022-08-05T05:36:18.440Z,977.51
2022-08-05T05:37:18.375Z,977.54
2022-08-05T05:38:26.726Z,977.55
2022-08-05T05:39:19.130Z,977.56
2022-08-05T05:40:18.435Z,977.57
2022-08-05T05:41:18.628Z,977.54
2022-08-05T05:42:18.435Z,977.56
2022-08-05T05:43:27.863Z,977.53
2022-08-05T05:44:36.455Z,977.55
2022-08-05T05:45:18.340Z,977.57
2022-08-05T05:46:18.865Z,977.58
2022-08-05T05:47:21.518Z,977.59
2022-08-05T05:48:18.441Z,977.61
2022-08-05T05:49:22.548Z,977.56
2022-08-05T05:50:19.670Z,977.63
2022-08-05T05:51:18.352Z,977.56
2022-08-05T05:52:25.513Z,977.56
2022-08-05T05:53:21.066Z,977.60
2022-08-05T05:54:18.143Z,977.59
2022-08-05T05:55:18.276Z,977.62
2022-08-05T05:56:26.235Z,977.61
2022-08-05T05:57:19.245Z,977.62
2022-08-05T05:58:18.186Z,977.60
2022-08-05T05:59:18.085Z,977.64
2022-08-05T06:00:18.079Z,977.63
2022-08-05T06:01:18.277Z,977.63
2022-08-05T06:02:32.675Z,977.63
2022-08-05T06:03:28.379Z,977.66
2022-08-05T06:04:18.154Z,977.63
2022-08-05T06:05:18.032Z,977.65
2022-08-05T06:06:18.122Z,977.66
2022-08-05T06:07:17.991Z,977.69
2022-08-05T06:08:32.410Z,977.68
2022-08-05T06:09:26.672Z,977.73
2022-08-05T06:10:18.030Z,977.69
2022-08-05T06:11:17.950Z,977.70
2022-08-05T06:12:17.949Z,977.75
2022-08-05T06:13:17.977Z,977.77
2022-08-05T06:14:17.910Z,977.83
2022-08-05T06:15:24.036Z,977.79
2022-08-05T06:16:29.028Z,977.83
2022-08-05T06:17:24.268Z,977.81
2022-08-05T06:18:17.836Z,977.77
2022-08-05T06:19:33.032Z,977.73
2022-08-05T06:20:21.382Z,977.71
2022-08-05T06:21:18.754Z,977.75
2022-08-05T06:22:17.801Z,977.75
2022-08-05T06:23:17.940Z,977.78
2022-08-05T06:24:17.800Z,977.77
2022-08-05T06:25:59.449Z,977.72
2022-08-05T06:26:21.004Z,977.76
2022-08-05T06:28:12.210Z,977.78
2022-08-05T06:28:28.567Z,977.77
2022-08-05T06:29:44.299Z,977.77
2022-08-05T06:30:19.964Z,977.80
2022-08-05T06:31:19.537Z,977.83
2022-08-05T06:32:25.465Z,977.82
2022-08-05T06:33:19.327Z,977.83
2022-08-05T06:34:19.803Z,977.84
2022-08-05T06:36:03.813Z,977.85
2022-08-05T06:36:17.796Z,977.85
2022-08-05T06:37:17.637Z,977.87
2022-08-05T06:38:17.691Z,977.83
2022-08-05T06:39:17.672Z,977.86
2022-08-05T06:40:17.847Z,977.83
2022-08-05T06:41:17.640Z,977.88
2022-08-05T06:42:17.810Z,977.84
2022-08-05T06:43:59.692Z,977.82
2022-08-05T06:44:17.601Z,977.86
2022-08-05T06:45:21.108Z,977.84
2022-08-05T06:46:17.569Z,977.78
2022-08-05T06:47:29.930Z,977.83
2022-08-05T06:48:53.550Z,977.86
2022-08-05T06:49:17.633Z,977.85
2022-08-05T06:50:17.967Z,977.85
2022-08-05T06:51:23.919Z,977.87
2022-08-05T06:52:37.994Z,977.89
2022-08-05T06:53:22.624Z,977.89
2022-08-05T06:54:18.170Z,977.93
2022-08-05T06:55:17.640Z,977.94
2022-08-05T06:56:26.384Z,977.94
2022-08-05T06:57:58.065Z,978.00
2022-08-05T06:58:29.904Z,977.97
2022-08-05T06:59:17.407Z,978.03
2022-08-05T07:00:22.459Z,977.99
2022-08-05T07:01:21.046Z,978.03
2022-08-05T07:02:17.470Z,977.99
2022-08-05T07:03:17.317Z,978.00
2022-08-05T07:04:19.244Z,978.00
2022-08-05T07:05:19.574Z,978.03
2022-08-05T07:06:17.490Z,978.06
2022-08-05T07:07:17.321Z,977.99
2022-08-05T07:08:17.256Z,978.03
2022-08-05T07:09:17.226Z,978.02
2022-08-05T07:10:17.289Z,978.06
2022-08-05T07:11:17.209Z,978.02
2022-08-05T07:12:17.194Z,978.04
2022-08-05T07:13:17.179Z,978.00
2022-08-05T07:14:20.496Z,978.03
2022-08-05T07:15:34.192Z,978.07
2022-08-05T07:17:56.899Z,978.04
2022-08-05T07:18:20.258Z,978.05
2022-08-05T07:18:34.165Z,978.08
2022-08-05T07:20:10.697Z,978.05
2022-08-05T07:20:38.684Z,978.09
2022-08-05T07:21:25.679Z,978.11
2022-08-05T07:22:29.150Z,978.09
2022-08-05T07:23:26.495Z,978.05
2022-08-05T07:24:24.548Z,978.10
2022-08-05T07:25:56.298Z,978.06
2022-08-05T07:26:25.672Z,978.06
2022-08-05T07:27:27.756Z,978.08
2022-08-05T07:28:24.520Z,978.03
2022-08-05T07:29:25.302Z,978.07
2022-08-05T07:30:32.476Z,978.08
2022-08-05T07:31:40.862Z,978.13
2022-08-05T07:32:26.222Z,978.13
2022-08-05T07:33:36.919Z,978.08
2022-08-05T07:34:28.535Z,978.10
2022-08-05T07:36:05.227Z,978.09
2022-08-05T07:36:25.810Z,978.09
2022-08-05T07:37:24.685Z,978.09
2022-08-05T07:38:33.186Z,978.10
2022-08-05T07:40:26.293Z,978.08
2022-08-05T07:40:35.248Z,978.10
2022-08-05T07:42:12.993Z,978.09
2022-08-05T07:42:33.718Z,978.08
2022-08-05T07:43:24.316Z,978.11
2022-08-05T07:44:24.539Z,978.13
2022-08-05T07:45:56.474Z,978.13
2022-08-05T07:46:26.071Z,978.16
2022-08-05T07:47:25.883Z,978.12
2022-08-05T07:49:00.348Z,978.11
2022-08-05T07:49:24.221Z,978.09
2022-08-05T07:50:28.947Z,978.12
2022-08-05T07:51:37.452Z,978.11
2022-08-05T07:52:24.533Z,978.13
2022-08-05T07:53:26.864Z,978.13
2022-08-05T07:54:26.297Z,978.13
2022-08-05T07:56:05.670Z,978.09
2022-08-05T07:57:02.007Z,978.09
2022-08-05T07:57:41.869Z,978.12
2022-08-05T07:58:57.447Z,978.06
2022-08-05T07:59:39.017Z,978.13
2022-08-05T08:00:24.195Z,978.11
2022-08-05T08:01:24.123Z,978.15
2022-08-05T08:02:26.601Z,978.15
2022-08-05T08:03:24.100Z,978.16
2022-08-05T08:04:37.659Z,978.18
2022-08-05T08:05:24.063Z,978.12
2022-08-05T08:06:28.164Z,978.13
2022-08-05T08:07:24.543Z,978.16
2022-08-05T08:08:24.210Z,978.19
2022-08-05T08:09:24.050Z,978.15
2022-08-05T08:10:24.066Z,978.18
2022-08-05T08:11:27.792Z,978.20
2022-08-05T08:12:36.960Z,978.14
2022-08-05T08:13:29.212Z,978.18
2022-08-05T08:14:23.970Z,978.17
2022-08-05T08:15:37.279Z,978.17
2022-08-05T08:16:51.019Z,978.17
2022-08-05T08:17:24.373Z,978.18
2022-08-05T08:18:23.883Z,978.22
2022-08-05T08:20:22.215Z,978.24
2022-08-05T08:21:01.907Z,978.23
2022-08-05T08:21:24.040Z,978.20
2022-08-05T08:22:23.950Z,978.22
2022-08-05T08:24:02.164Z,978.19
2022-08-05T08:24:23.871Z,978.18
2022-08-05T08:25:35.975Z,978.21
2022-08-05T08:26:29.805Z,978.24
2022-08-05T08:27:35.804Z,978.20
2022-08-05T08:28:35.685Z,978.17
2022-08-05T08:30:03.933Z,978.14
2022-08-05T08:30:32.437Z,978.19
2022-08-05T08:31:23.787Z,978.19
2022-08-05T08:32:27.856Z,978.11
2022-08-05T08:33:23.719Z,978.13
2022-08-05T08:34:30.342Z,978.13
2022-08-05T08:35:26.606Z,978.08
2022-08-05T08:36:38.127Z,978.08
2022-08-05T08:37:27.936Z,978.12
2022-08-05T08:38:36.060Z,978.14
2022-08-05T08:39:23.754Z,978.11
2022-08-05T08:40:23.620Z,978.12
2022-08-05T08:41:26.180Z,978.10
2022-08-05T08:42:34.240Z,978.16
2022-08-05T08:45:23.124Z,978.14
2022-08-05T08:45:31.183Z,978.10
2022-08-05T08:45:36.438Z,978.08
2022-08-05T08:46:36.510Z,978.15
2022-08-05T08:48:05.583Z,978.10
2022-08-05T08:49:02.474Z,978.12
2022-08-05T08:50:05.915Z,978.10
2022-08-05T08:51:03.934Z,978.10
2022-08-05T08:52:03.455Z,978.12
2022-08-05T08:52:36.430Z,978.08
2022-08-05T08:53:36.344Z,978.09
2022-08-05T08:54:36.716Z,978.14
2022-08-05T08:56:02.650Z,978.15
2022-08-05T08:56:36.370Z,978.19
2022-08-05T08:57:42.336Z,978.18
2022-08-05T08:58:37.507Z,978.16
2022-08-05T08:59:36.276Z,978.16
2022-08-05T09:00:36.349Z,978.18
2022-08-05T09:01:36.246Z,978.18
2022-08-05T09:02:36.457Z,978.20
2022-08-05T09:03:40.504Z,978.20
2022-08-05T09:04:36.365Z,978.19
2022-08-05T09:05:38.282Z,978.19
2022-08-05T09:06:36.472Z,978.18
2022-08-05T09:07:39.810Z,978.21
2022-08-05T09:08:40.092Z,978.24
2022-08-05T09:09:36.200Z,978.22
2022-08-05T09:10:36.152Z,978.26
2022-08-05T09:11:51.155Z,978.32
2022-08-05T09:12:36.110Z,978.40
2022-08-05T09:13:50.701Z,978.37
2022-08-05T09:14:57.272Z,978.43
2022-08-05T09:15:36.754Z,978.38
2022-08-05T09:16:36.437Z,978.41
2022-08-05T09:17:40.708Z,978.36
2022-08-05T09:18:40.055Z,978.37
2022-08-05T09:20:01.541Z,978.36
2022-08-05T09:20:37.825Z,978.32
2022-08-05T09:22:22.561Z,978.29
2022-08-05T09:22:36.311Z,978.25
2022-08-05T09:23:43.348Z,978.29
2022-08-05T09:24:36.041Z,978.26
2022-08-05T09:26:01.375Z,978.27
2022-08-05T09:26:36.052Z,978.25
2022-08-05T09:28:03.848Z,978.27
2022-08-05T09:28:36.103Z,978.35
2022-08-05T09:29:35.936Z,978.30
2022-08-05T09:30:36.037Z,978.28
2022-08-05T09:32:40.631Z,978.33
2022-08-05T09:32:52.971Z,978.26
2022-08-05T09:33:35.886Z,978.30
2022-08-05T09:34:36.106Z,978.28
2022-08-05T09:35:35.876Z,978.24
2022-08-05T09:36:35.823Z,978.28
2022-08-05T09:38:12.689Z,978.28
2022-08-05T09:38:36.041Z,978.26
2022-08-05T09:39:41.408Z,978.24
2022-08-05T09:40:35.851Z,978.24
2022-08-05T09:41:38.324Z,978.20
2022-08-05T09:42:35.770Z,978.19
2022-08-05T09:43:40.774Z,978.17
2022-08-05T09:44:35.771Z,978.21
2022-08-05T09:46:07.238Z,978.22
2022-08-05T09:46:35.802Z,978.25
2022-08-05T09:47:54.980Z,978.26
2022-08-05T09:48:35.715Z,978.24
2022-08-05T09:49:54.875Z,978.25
2022-08-05T09:50:38.591Z,978.29
2022-08-05T09:51:36.632Z,978.31
2022-08-05T09:52:35.776Z,978.31
2022-08-05T09:53:54.820Z,978.28
2022-08-05T09:54:35.632Z,978.26
2022-08-05T09:55:56.197Z,978.29
2022-08-05T09:56:35.744Z,978.30
2022-08-05T09:57:35.581Z,978.26
2022-08-05T09:58:35.740Z,978.30
2022-08-05T09:59:37.311Z,978.25
2022-08-05T10:00:35.555Z,978.29
2022-08-05T10:01:35.570Z,978.31
2022-08-05T10:02:35.779Z,978.22
2022-08-05T10:03:51.830Z,978.23
2022-08-05T10:04:35.576Z,978.30
2022-08-05T10:05:35.480Z,978.25
2022-08-05T10:06:35.512Z,978.22
2022-08-05T10:08:36.963Z,978.19
2022-08-05T10:08:42.780Z,978.16
2022-08-05T10:09:44.848Z,978.18
2022-08-05T10:10:35.521Z,978.16
2022-08-05T10:11:35.560Z,978.18
2022-08-05T10:12:35.708Z,978.19
2022-08-05T10:13:47.564Z,978.16
2022-08-05T10:14:35.401Z,978.11
2022-08-05T10:15:35.372Z,978.14
2022-08-05T10:16:37.810Z,978.10
2022-08-05T10:17:37.921Z,978.09
2022-08-05T10:18:35.426Z,978.08
2022-08-05T10:20:04.400Z,978.05
2022-08-05T10:20:35.428Z,978.08
2022-08-05T10:21:40.141Z,978.04
2022-08-05T10:22:37.958Z,978.07
2022-08-05T10:24:00.074Z,978.07
2022-08-05T10:24:35.290Z,978.04
2022-08-05T10:25:35.280Z,978.07
2022-08-05T10:26:35.241Z,978.13
2022-08-05T10:28:16.790Z,978.06
2022-08-05T10:28:36.655Z,978.03
2022-08-05T10:30:06.706Z,978.11
2022-08-05T10:32:55.161Z,978.06
2022-08-05T10:33:06.194Z,978.07
2022-08-05T10:33:14.874Z,978.05
2022-08-05T10:34:14.536Z,978.01
2022-08-05T10:35:14.517Z,978.04
2022-08-05T10:36:14.446Z,978.04
2022-08-05T10:37:14.458Z,978.00
2022-08-05T10:38:14.585Z,978.02
2022-08-05T10:39:15.237Z,978.03
2022-08-05T10:40:17.874Z,978.00
2022-08-05T10:41:14.551Z,978.04
2022-08-05T10:42:14.401Z,978.04
2022-08-05T10:43:14.445Z,978.04
2022-08-05T10:44:14.600Z,978.06
2022-08-05T10:45:23.458Z,978.09
2022-08-05T10:46:14.340Z,978.09
2022-08-05T10:47:26.856Z,978.09
2022-08-05T10:48:29.948Z,978.08
2022-08-05T10:49:16.351Z,978.03
2022-08-05T10:50:32.424Z,978.06
2022-08-05T10:51:22.224Z,978.11
2022-08-05T10:52:14.369Z,978.11
2022-08-05T10:53:14.437Z,978.07
2022-08-05T10:54:28.258Z,978.10
2022-08-05T10:55:16.135Z,978.09
2022-08-05T10:56:21.058Z,978.08
2022-08-05T10:57:14.231Z,978.08
2022-08-05T10:58:15.713Z,978.08
2022-08-05T11:00:01.820Z,977.99
2022-08-05T11:00:19.311Z,978.05
2022-08-05T11:01:15.114Z,978.01
2022-08-05T11:02:34.749Z,978.10
2022-08-05T11:03:23.529Z,978.06
2022-08-05T11:04:14.360Z,978.05
2022-08-05T11:05:14.155Z,978.04
2022-08-05T11:06:15.430Z,978.04
2022-08-05T11:07:14.150Z,978.02
2022-08-05T11:08:36.715Z,978.01
2022-08-05T11:09:16.857Z,978.00
2022-08-05T11:10:14.336Z,978.02
2022-08-05T11:11:16.728Z,977.98
2022-08-05T11:12:14.102Z,978.04
2022-08-05T11:13:14.119Z,978.04
2022-08-05T11:14:14.001Z,978.04
2022-08-05T11:15:20.009Z,978.04
2022-08-05T11:16:14.012Z,978.01
2022-08-05T11:17:57.810Z,978.07
2022-08-05T11:18:14.196Z,978.03
2022-08-05T11:20:10.692Z,978.04
2022-08-05T11:20:20.716Z,978.05
2022-08-05T11:21:13.920Z,978.00
2022-08-05T11:22:13.956Z,977.97
2022-08-05T11:23:14.116Z,977.98
2022-08-05T11:24:30.239Z,977.94
2022-08-05T11:26:03.296Z,977.98
2022-08-05T11:26:13.954Z,977.92
2022-08-05T11:27:13.860Z,977.95
2022-08-05T11:28:17.082Z,977.95
2022-08-05T11:29:14.448Z,977.98
2022-08-05T11:30:13.800Z,977.97
2022-08-05T11:31:53.837Z,977.98
2022-08-05T11:32:13.805Z,977.99
2022-08-05T11:33:13.886Z,978.04
2022-08-05T11:34:15.034Z,977.96
2022-08-05T11:35:15.507Z,977.97
2022-08-05T11:36:13.737Z,977.97
2022-08-05T11:38:28.240Z,977.96
2022-08-05T11:38:45.448Z,977.95
2022-08-05T11:39:13.890Z,977.95
2022-08-05T11:40:13.756Z,978.00
2022-08-05T11:41:54.827Z,978.03
2022-08-05T11:42:18.408Z,977.98
2022-08-05T11:43:13.797Z,978.03
2022-08-05T11:44:40.150Z,978.04
2022-08-05T11:45:23.020Z,977.98
2022-08-05T11:46:32.471Z,977.95
2022-08-05T11:47:17.390Z,977.98
2022-08-05T11:48:13.641Z,977.95
2022-08-05T11:49:13.791Z,977.97
2022-08-05T11:50:14.393Z,978.00
2022-08-05T11:51:13.520Z,977.96
2022-08-05T11:52:13.976Z,977.97
2022-08-05T11:53:13.550Z,977.97
2022-08-05T11:54:13.939Z,977.95
2022-08-05T11:55:13.476Z,977.97
2022-08-05T11:56:13.635Z,977.95
2022-08-05T11:57:24.925Z,977.96
2022-08-05T11:58:13.516Z,977.98
2022-08-05T11:59:13.876Z,977.94
2022-08-05T12:00:13.419Z,977.92
2022-08-05T12:01:13.490Z,977.93
2022-08-05T12:02:30.057Z,977.96
2022-08-05T12:03:13.550Z,977.94
2022-08-05T12:04:13.685Z,977.94
2022-08-05T12:05:18.133Z,977.92
2022-08-05T12:06:13.641Z,977.87
2022-08-05T12:07:13.482Z,977.83
2022-08-05T12:08:17.913Z,977.76
2022-08-05T12:09:19.914Z,977.78
2022-08-05T12:10:13.427Z,977.79
2022-08-05T12:11:17.272Z,977.76
2022-08-05T12:12:13.315Z,977.77
2022-08-05T12:13:14.622Z,977.73
2022-08-05T12:14:13.315Z,977.78
2022-08-05T12:15:16.729Z,977.76
2022-08-05T12:16:14.497Z,977.81
2022-08-05T12:18:03.092Z,977.81
2022-08-05T12:18:13.674Z,977.81
2022-08-05T12:20:27.463Z,977.79
2022-08-05T12:20:38.899Z,977.77
2022-08-05T12:21:13.153Z,977.71
2022-08-05T12:22:13.150Z,977.74
2022-08-05T12:23:13.224Z,977.71
2022-08-05T12:24:13.321Z,977.66
2022-08-05T12:25:14.211Z,977.70
2022-08-05T12:26:13.316Z,977.61
2022-08-05T12:27:21.599Z,977.60
2022-08-05T12:28:15.779Z,977.61
2022-08-05T12:29:16.121Z,977.57
2022-08-05T12:30:15.243Z,977.59
2022-08-05T12:31:13.026Z,977.61